sensor_id;sensor_type;location;lat;lon;timestamp;temperature;humidity
62464;SHT31;48512;48.552;9.380;2023-04-25T00:00:03;8.15;76.00
62464;SHT31;48512;48.552;9.380;2023-04-25T00:02:39;8.01;76.56
62464;SHT31;48512;48.552;9.380;2023-04-25T00:05:05;7.92;76.44
62464;SHT31;48512;48.552;9.380;2023-04-25T00:07:31;8.23;76.23
62464;SHT31;48512;48.552;9.380;2023-04-25T00:09:58;8.22;75.81
62464;SHT31;48512;48.552;9.380;2023-04-25T00:12:24;7.99;76.50
62464;SHT31;48512;48.552;9.380;2023-04-25T00:14:50;8.28;76.35
62464;SHT31;48512;48.552;9.380;2023-04-25T00:17:17;8.10;76.61
62464;SHT31;48512;48.552;9.380;2023-04-25T00:19:43;8.06;76.73
62464;SHT31;48512;48.552;9.380;2023-04-25T00:22:10;8.16;77.09
62464;SHT31;48512;48.552;9.380;2023-04-25T00:24:37;8.12;77.35
62464;SHT31;48512;48.552;9.380;2023-04-25T00:27:03;8.05;78.08
62464;SHT31;48512;48.552;9.380;2023-04-25T00:29:29;7.92;78.39
62464;SHT31;48512;48.552;9.380;2023-04-25T00:31:56;7.94;77.95
62464;SHT31;48512;48.552;9.380;2023-04-25T00:34:22;8.01;78.26
62464;SHT31;48512;48.552;9.380;2023-04-25T00:36:48;8.29;75.65
62464;SHT31;48512;48.552;9.380;2023-04-25T00:39:14;8.21;75.79
62464;SHT31;48512;48.552;9.380;2023-04-25T00:41:40;8.22;76.49
62464;SHT31;48512;48.552;9.380;2023-04-25T00:44:08;8.26;76.82
62464;SHT31;48512;48.552;9.380;2023-04-25T00:46:38;8.23;76.77
62464;SHT31;48512;48.552;9.380;2023-04-25T00:49:06;8.22;76.48
62464;SHT31;48512;48.552;9.380;2023-04-25T00:51:32;8.39;75.15
62464;SHT31;48512;48.552;9.380;2023-04-25T00:53:59;8.47;74.35
62464;SHT31;48512;48.552;9.380;2023-04-25T00:56:26;8.54;73.92
62464;SHT31;48512;48.552;9.380;2023-04-25T00:58:53;8.67;73.25
62464;SHT31;48512;48.552;9.380;2023-04-25T01:01:22;8.61;73.61
62464;SHT31;48512;48.552;9.380;2023-04-25T01:03:49;8.71;73.63
62464;SHT31;48512;48.552;9.380;2023-04-25T01:06:16;8.70;73.74
62464;SHT31;48512;48.552;9.380;2023-04-25T01:08:43;8.99;72.32
62464;SHT31;48512;48.552;9.380;2023-04-25T01:11:09;8.89;72.95
62464;SHT31;48512;48.552;9.380;2023-04-25T01:13:35;8.81;73.33
62464;SHT31;48512;48.552;9.380;2023-04-25T01:16:02;8.92;73.70
62464;SHT31;48512;48.552;9.380;2023-04-25T01:18:29;8.91;73.78
62464;SHT31;48512;48.552;9.380;2023-04-25T01:20:55;8.91;73.98
62464;SHT31;48512;48.552;9.380;2023-04-25T01:23:22;8.89;74.06
62464;SHT31;48512;48.552;9.380;2023-04-25T01:25:49;8.97;74.63
62464;SHT31;48512;48.552;9.380;2023-04-25T01:28:16;9.02;74.28
62464;SHT31;48512;48.552;9.380;2023-04-25T01:30:43;8.95;74.06
62464;SHT31;48512;48.552;9.380;2023-04-25T01:33:09;8.93;73.89
62464;SHT31;48512;48.552;9.380;2023-04-25T01:35:37;9.05;74.25
62464;SHT31;48512;48.552;9.380;2023-04-25T01:38:03;9.16;72.98
62464;SHT31;48512;48.552;9.380;2023-04-25T01:40:30;8.84;73.78
62464;SHT31;48512;48.552;9.380;2023-04-25T01:42:57;8.71;74.82
62464;SHT31;48512;48.552;9.380;2023-04-25T01:45:23;8.75;75.00
62464;SHT31;48512;48.552;9.380;2023-04-25T01:47:51;8.89;74.31
62464;SHT31;48512;48.552;9.380;2023-04-25T01:50:18;8.87;73.93
62464;SHT31;48512;48.552;9.380;2023-04-25T01:52:45;8.89;74.03
62464;SHT31;48512;48.552;9.380;2023-04-25T01:55:12;8.97;73.62
62464;SHT31;48512;48.552;9.380;2023-04-25T01:57:43;8.97;73.52
62464;SHT31;48512;48.552;9.380;2023-04-25T02:00:11;8.81;74.18
62464;SHT31;48512;48.552;9.380;2023-04-25T02:02:40;8.78;74.44
62464;SHT31;48512;48.552;9.380;2023-04-25T02:05:26;8.77;75.03
62464;SHT31;48512;48.552;9.380;2023-04-25T02:07:53;8.67;74.66
62464;SHT31;48512;48.552;9.380;2023-04-25T02:10:19;8.87;74.39
62464;SHT31;48512;48.552;9.380;2023-04-25T02:13:02;8.81;73.98
62464;SHT31;48512;48.552;9.380;2023-04-25T02:15:49;8.81;74.26
62464;SHT31;48512;48.552;9.380;2023-04-25T02:18:18;8.87;74.40
62464;SHT31;48512;48.552;9.380;2023-04-25T02:20:45;8.80;75.16
62464;SHT31;48512;48.552;9.380;2023-04-25T02:23:11;8.85;74.87
62464;SHT31;48512;48.552;9.380;2023-04-25T02:25:37;9.09;73.61
62464;SHT31;48512;48.552;9.380;2023-04-25T02:28:03;8.89;73.88
62464;SHT31;48512;48.552;9.380;2023-04-25T02:30:29;8.81;74.48
62464;SHT31;48512;48.552;9.380;2023-04-25T02:32:56;8.75;75.68
62464;SHT31;48512;48.552;9.380;2023-04-25T02:35:22;8.91;75.38
62464;SHT31;48512;48.552;9.380;2023-04-25T02:37:48;8.91;74.39
62464;SHT31;48512;48.552;9.380;2023-04-25T02:40:14;8.84;75.64
62464;SHT31;48512;48.552;9.380;2023-04-25T02:42:41;8.88;76.70
62464;SHT31;48512;48.552;9.380;2023-04-25T02:45:07;8.81;77.83
62464;SHT31;48512;48.552;9.380;2023-04-25T02:47:34;8.70;77.73
62464;SHT31;48512;48.552;9.380;2023-04-25T02:50:00;8.60;77.29
62464;SHT31;48512;48.552;9.380;2023-04-25T02:52:26;8.65;76.79
62464;SHT31;48512;48.552;9.380;2023-04-25T02:54:59;8.95;76.39
62464;SHT31;48512;48.552;9.380;2023-04-25T02:57:27;8.75;76.32
62464;SHT31;48512;48.552;9.380;2023-04-25T02:59:53;8.47;76.58
62464;SHT31;48512;48.552;9.380;2023-04-25T03:02:19;8.65;76.35
62464;SHT31;48512;48.552;9.380;2023-04-25T03:04:45;8.53;77.04
62464;SHT31;48512;48.552;9.380;2023-04-25T03:07:12;8.44;77.10
62464;SHT31;48512;48.552;9.380;2023-04-25T03:09:38;8.47;77.62
62464;SHT31;48512;48.552;9.380;2023-04-25T03:12:04;8.59;76.92
62464;SHT31;48512;48.552;9.380;2023-04-25T03:14:32;8.39;77.17
62464;SHT31;48512;48.552;9.380;2023-04-25T03:16:58;8.47;77.33
62464;SHT31;48512;48.552;9.380;2023-04-25T03:19:25;8.43;77.10
62464;SHT31;48512;48.552;9.380;2023-04-25T03:21:51;8.36;77.12
62464;SHT31;48512;48.552;9.380;2023-04-25T03:24:17;8.21;77.49
62464;SHT31;48512;48.552;9.380;2023-04-25T03:26:43;8.29;77.11
62464;SHT31;48512;48.552;9.380;2023-04-25T03:29:09;8.22;77.71
62464;SHT31;48512;48.552;9.380;2023-04-25T03:31:37;8.01;77.99
62464;SHT31;48512;48.552;9.380;2023-04-25T03:34:04;8.06;78.16
62464;SHT31;48512;48.552;9.380;2023-04-25T03:36:30;8.16;78.24
62464;SHT31;48512;48.552;9.380;2023-04-25T03:38:56;8.16;78.19
62464;SHT31;48512;48.552;9.380;2023-04-25T03:41:23;8.28;76.76
62464;SHT31;48512;48.552;9.380;2023-04-25T03:43:55;8.29;76.11
62464;SHT31;48512;48.552;9.380;2023-04-25T03:46:21;8.32;76.07
62464;SHT31;48512;48.552;9.380;2023-04-25T03:48:48;8.17;76.61
62464;SHT31;48512;48.552;9.380;2023-04-25T03:51:20;8.36;75.66
62464;SHT31;48512;48.552;9.380;2023-04-25T03:53:47;8.40;75.80
62464;SHT31;48512;48.552;9.380;2023-04-25T03:56:19;8.71;74.61
62464;SHT31;48512;48.552;9.380;2023-04-25T03:58:50;8.46;75.92
62464;SHT31;48512;48.552;9.380;2023-04-25T04:01:19;8.40;75.62
62464;SHT31;48512;48.552;9.380;2023-04-25T04:03:45;8.30;76.06
62464;SHT31;48512;48.552;9.380;2023-04-25T04:06:11;8.22;76.46
62464;SHT31;48512;48.552;9.380;2023-04-25T04:08:42;8.03;77.35
62464;SHT31;48512;48.552;9.380;2023-04-25T04:11:09;8.19;76.40
62464;SHT31;48512;48.552;9.380;2023-04-25T04:13:36;8.12;77.18
62464;SHT31;48512;48.552;9.380;2023-04-25T04:16:03;8.07;77.77
62464;SHT31;48512;48.552;9.380;2023-04-25T04:18:30;8.12;77.60
62464;SHT31;48512;48.552;9.380;2023-04-25T04:20:57;8.07;76.44
62464;SHT31;48512;48.552;9.380;2023-04-25T04:23:24;8.09;76.65
62464;SHT31;48512;48.552;9.380;2023-04-25T04:25:53;7.94;77.91
62464;SHT31;48512;48.552;9.380;2023-04-25T04:28:32;7.96;78.01
62464;SHT31;48512;48.552;9.380;2023-04-25T04:31:11;7.94;78.51
62464;SHT31;48512;48.552;9.380;2023-04-25T04:33:38;7.86;78.77
62464;SHT31;48512;48.552;9.380;2023-04-25T04:36:05;7.96;79.50
62464;SHT31;48512;48.552;9.380;2023-04-25T04:38:33;7.75;80.47
62464;SHT31;48512;48.552;9.380;2023-04-25T04:41:02;7.79;80.84
62464;SHT31;48512;48.552;9.380;2023-04-25T04:43:40;7.85;81.01
62464;SHT31;48512;48.552;9.380;2023-04-25T04:46:25;7.78;81.14
62464;SHT31;48512;48.552;9.380;2023-04-25T04:49:11;7.71;81.67
62464;SHT31;48512;48.552;9.380;2023-04-25T04:52:01;7.88;79.56
62464;SHT31;48512;48.552;9.380;2023-04-25T04:54:50;7.77;80.18
62464;SHT31;48512;48.552;9.380;2023-04-25T04:57:28;7.99;81.06
62464;SHT31;48512;48.552;9.380;2023-04-25T05:00:17;8.03;80.12
62464;SHT31;48512;48.552;9.380;2023-04-25T05:02:43;7.95;80.86
62464;SHT31;48512;48.552;9.380;2023-04-25T05:05:23;7.94;81.24
62464;SHT31;48512;48.552;9.380;2023-04-25T05:08:07;8.10;79.25
62464;SHT31;48512;48.552;9.380;2023-04-25T05:10:52;8.19;78.23
62464;SHT31;48512;48.552;9.380;2023-04-25T05:13:30;8.42;76.53
62464;SHT31;48512;48.552;9.380;2023-04-25T05:16:19;8.49;76.18
62464;SHT31;48512;48.552;9.380;2023-04-25T05:18:55;8.89;81.76
62464;SHT31;48512;48.552;9.380;2023-04-25T05:21:41;8.71;75.03
62464;SHT31;48512;48.552;9.380;2023-04-25T05:24:27;8.78;74.93
62464;SHT31;48512;48.552;9.380;2023-04-25T05:27:12;8.68;75.72
62464;SHT31;48512;48.552;9.380;2023-04-25T05:30:08;8.85;75.49
62464;SHT31;48512;48.552;9.380;2023-04-25T05:32:47;8.82;74.99
62464;SHT31;48512;48.552;9.380;2023-04-25T05:35:13;8.60;75.88
62464;SHT31;48512;48.552;9.380;2023-04-25T05:37:44;8.89;75.68
62464;SHT31;48512;48.552;9.380;2023-04-25T05:40:13;8.85;76.59
62464;SHT31;48512;48.552;9.380;2023-04-25T05:42:58;9.26;73.60
62464;SHT31;48512;48.552;9.380;2023-04-25T05:45:41;8.89;74.82
62464;SHT31;48512;48.552;9.380;2023-04-25T05:48:30;8.88;75.77
62464;SHT31;48512;48.552;9.380;2023-04-25T05:51:00;9.01;75.51
62464;SHT31;48512;48.552;9.380;2023-04-25T05:53:53;8.92;76.12
62464;SHT31;48512;48.552;9.380;2023-04-25T05:56:19;8.67;77.56
62464;SHT31;48512;48.552;9.380;2023-04-25T05:58:47;8.71;77.77
62464;SHT31;48512;48.552;9.380;2023-04-25T06:01:14;8.88;76.67
62464;SHT31;48512;48.552;9.380;2023-04-25T06:03:40;9.05;76.92
62464;SHT31;48512;48.552;9.380;2023-04-25T06:06:11;8.85;76.84
62464;SHT31;48512;48.552;9.380;2023-04-25T06:08:37;8.60;78.34
62464;SHT31;48512;48.552;9.380;2023-04-25T06:11:04;8.56;78.46
62464;SHT31;48512;48.552;9.380;2023-04-25T06:13:31;8.74;79.22
62464;SHT31;48512;48.552;9.380;2023-04-25T06:15:57;9.09;77.32
62464;SHT31;48512;48.552;9.380;2023-04-25T06:18:23;8.98;78.48
62464;SHT31;48512;48.552;9.380;2023-04-25T06:20:49;8.89;76.98
62464;SHT31;48512;48.552;9.380;2023-04-25T06:23:17;9.16;78.07
62464;SHT31;48512;48.552;9.380;2023-04-25T06:26:09;9.19;75.96
62464;SHT31;48512;48.552;9.380;2023-04-25T06:28:38;9.14;76.36
62464;SHT31;48512;48.552;9.380;2023-04-25T06:31:05;9.22;76.77
62464;SHT31;48512;48.552;9.380;2023-04-25T06:33:31;9.30;77.00
62464;SHT31;48512;48.552;9.380;2023-04-25T06:35:57;9.36;77.00
62464;SHT31;48512;48.552;9.380;2023-04-25T06:38:26;9.53;75.22
62464;SHT31;48512;48.552;9.380;2023-04-25T06:40:55;9.50;75.77
62464;SHT31;48512;48.552;9.380;2023-04-25T06:43:21;9.49;75.17
62464;SHT31;48512;48.552;9.380;2023-04-25T06:46:26;9.56;74.10
62464;SHT31;48512;48.552;9.380;2023-04-25T06:48:54;9.61;72.25
62464;SHT31;48512;48.552;9.380;2023-04-25T06:51:21;9.63;72.87
62464;SHT31;48512;48.552;9.380;2023-04-25T06:53:48;9.71;73.38
62464;SHT31;48512;48.552;9.380;2023-04-25T06:56:24;9.71;73.58
62464;SHT31;48512;48.552;9.380;2023-04-25T06:58:58;9.70;73.89
62464;SHT31;48512;48.552;9.380;2023-04-25T07:01:34;9.80;73.92
62464;SHT31;48512;48.552;9.380;2023-04-25T07:04:05;9.93;72.20
62464;SHT31;48512;48.552;9.380;2023-04-25T07:06:33;9.90;72.22
62464;SHT31;48512;48.552;9.380;2023-04-25T07:08:59;9.78;71.49
62464;SHT31;48512;48.552;9.380;2023-04-25T07:11:26;9.83;71.39
62464;SHT31;48512;48.552;9.380;2023-04-25T07:13:52;9.84;71.38
62464;SHT31;48512;48.552;9.380;2023-04-25T07:16:18;9.93;71.03
62464;SHT31;48512;48.552;9.380;2023-04-25T07:18:45;10.28;70.43
62464;SHT31;48512;48.552;9.380;2023-04-25T07:21:12;9.90;72.51
62464;SHT31;48512;48.552;9.380;2023-04-25T07:23:39;9.80;73.63
62464;SHT31;48512;48.552;9.380;2023-04-25T07:26:11;9.94;73.03
62464;SHT31;48512;48.552;9.380;2023-04-25T07:28:45;9.88;73.84
62464;SHT31;48512;48.552;9.380;2023-04-25T07:31:15;9.91;74.22
62464;SHT31;48512;48.552;9.380;2023-04-25T07:33:46;9.88;72.70
62464;SHT31;48512;48.552;9.380;2023-04-25T07:36:13;9.66;74.03
62464;SHT31;48512;48.552;9.380;2023-04-25T07:38:41;9.71;75.32
62464;SHT31;48512;48.552;9.380;2023-04-25T07:41:07;9.76;75.68
62464;SHT31;48512;48.552;9.380;2023-04-25T07:43:34;9.76;75.53
62464;SHT31;48512;48.552;9.380;2023-04-25T07:46:00;9.78;75.68
62464;SHT31;48512;48.552;9.380;2023-04-25T07:48:30;9.81;75.07
62464;SHT31;48512;48.552;9.380;2023-04-25T07:50:56;9.56;76.05
62464;SHT31;48512;48.552;9.380;2023-04-25T07:53:22;9.60;77.53
62464;SHT31;48512;48.552;9.380;2023-04-25T07:55:53;9.54;78.36
62464;SHT31;48512;48.552;9.380;2023-04-25T07:58:20;9.58;78.84
62464;SHT31;48512;48.552;9.380;2023-04-25T08:00:49;9.46;79.81
62464;SHT31;48512;48.552;9.380;2023-04-25T08:03:41;9.22;80.72
62464;SHT31;48512;48.552;9.380;2023-04-25T08:06:14;9.40;80.55
62464;SHT31;48512;48.552;9.380;2023-04-25T08:08:50;9.53;79.90
62464;SHT31;48512;48.552;9.380;2023-04-25T08:11:19;9.54;80.13
62464;SHT31;48512;48.552;9.380;2023-04-25T08:13:45;9.51;80.54
62464;SHT31;48512;48.552;9.380;2023-04-25T08:16:12;9.53;81.60
62464;SHT31;48512;48.552;9.380;2023-04-25T08:18:38;9.47;83.03
62464;SHT31;48512;48.552;9.380;2023-04-25T08:21:04;9.54;82.63
62464;SHT31;48512;48.552;9.380;2023-04-25T08:23:30;9.56;82.76
62464;SHT31;48512;48.552;9.380;2023-04-25T08:26:13;9.63;82.28
62464;SHT31;48512;48.552;9.380;2023-04-25T08:28:41;9.56;82.99
62464;SHT31;48512;48.552;9.380;2023-04-25T08:31:08;9.53;82.34
62464;SHT31;48512;48.552;9.380;2023-04-25T08:33:44;9.39;83.17
62464;SHT31;48512;48.552;9.380;2023-04-25T08:36:24;9.42;83.47
62464;SHT31;48512;48.552;9.380;2023-04-25T08:38:51;9.32;81.78
62464;SHT31;48512;48.552;9.380;2023-04-25T08:41:19;9.26;81.39
62464;SHT31;48512;48.552;9.380;2023-04-25T08:43:48;9.19;81.66
62464;SHT31;48512;48.552;9.380;2023-04-25T08:46:17;9.20;82.05
62464;SHT31;48512;48.552;9.380;2023-04-25T08:49:06;9.12;83.05
62464;SHT31;48512;48.552;9.380;2023-04-25T08:51:34;9.20;83.29
62464;SHT31;48512;48.552;9.380;2023-04-25T08:54:11;9.29;83.21
62464;SHT31;48512;48.552;9.380;2023-04-25T08:56:45;9.29;83.61
62464;SHT31;48512;48.552;9.380;2023-04-25T08:59:13;9.15;84.16
62464;SHT31;48512;48.552;9.380;2023-04-25T09:01:41;9.20;84.02
62464;SHT31;48512;48.552;9.380;2023-04-25T09:04:07;9.26;83.85
62464;SHT31;48512;48.552;9.380;2023-04-25T09:06:34;9.38;83.39
62464;SHT31;48512;48.552;9.380;2023-04-25T09:09:03;9.16;83.00
62464;SHT31;48512;48.552;9.380;2023-04-25T09:11:32;9.23;82.13
62464;SHT31;48512;48.552;9.380;2023-04-25T09:17:04;9.28;82.02
62464;SHT31;48512;48.552;9.380;2023-04-25T09:19:46;9.33;81.76
62464;SHT31;48512;48.552;9.380;2023-04-25T09:22:38;9.32;80.35
62464;SHT31;48512;48.552;9.380;2023-04-25T09:27:35;9.39;79.89
62464;SHT31;48512;48.552;9.380;2023-04-25T09:30:15;9.16;79.65
62464;SHT31;48512;48.552;9.380;2023-04-25T09:33:11;9.11;80.55
62464;SHT31;48512;48.552;9.380;2023-04-25T09:35:43;9.28;80.53
62464;SHT31;48512;48.552;9.380;2023-04-25T09:38:18;9.43;79.92
62464;SHT31;48512;48.552;9.380;2023-04-25T09:41:08;9.26;79.31
62464;SHT31;48512;48.552;9.380;2023-04-25T09:43:45;9.40;78.38
62464;SHT31;48512;48.552;9.380;2023-04-25T09:46:11;9.05;79.05
62464;SHT31;48512;48.552;9.380;2023-04-25T09:48:48;9.08;79.62
62464;SHT31;48512;48.552;9.380;2023-04-25T09:51:15;9.16;77.10
62464;SHT31;48512;48.552;9.380;2023-04-25T09:53:45;9.12;76.17
62464;SHT31;48512;48.552;9.380;2023-04-25T09:56:26;9.11;77.09
62464;SHT31;48512;48.552;9.380;2023-04-25T09:58:54;9.02;77.60
62464;SHT31;48512;48.552;9.380;2023-04-25T10:01:21;8.93;78.17
62464;SHT31;48512;48.552;9.380;2023-04-25T10:04:10;8.87;78.78
62464;SHT31;48512;48.552;9.380;2023-04-25T10:06:53;8.72;80.43
62464;SHT31;48512;48.552;9.380;2023-04-25T10:09:21;8.82;80.10
62464;SHT31;48512;48.552;9.380;2023-04-25T10:11:50;8.88;76.94
62464;SHT31;48512;48.552;9.380;2023-04-25T10:14:18;8.89;78.63
62464;SHT31;48512;48.552;9.380;2023-04-25T10:16:45;8.70;78.24
62464;SHT31;48512;48.552;9.380;2023-04-25T10:19:11;8.61;79.63
62464;SHT31;48512;48.552;9.380;2023-04-25T10:22:18;8.54;77.92
62464;SHT31;48512;48.552;9.380;2023-04-25T10:24:46;8.34;78.33
62464;SHT31;48512;48.552;9.380;2023-04-25T10:27:13;8.54;78.57
62464;SHT31;48512;48.552;9.380;2023-04-25T10:29:41;8.63;78.95
62464;SHT31;48512;48.552;9.380;2023-04-25T10:32:09;8.47;78.65
62464;SHT31;48512;48.552;9.380;2023-04-25T10:34:42;8.06;80.43
62464;SHT31;48512;48.552;9.380;2023-04-25T10:37:09;8.06;81.43
62464;SHT31;48512;48.552;9.380;2023-04-25T10:39:39;8.02;80.85
62464;SHT31;48512;48.552;9.380;2023-04-25T10:42:05;8.07;81.44
62464;SHT31;48512;48.552;9.380;2023-04-25T10:44:34;8.07;81.13
62464;SHT31;48512;48.552;9.380;2023-04-25T10:47:01;8.07;80.36
62464;SHT31;48512;48.552;9.380;2023-04-25T10:52:17;7.94;80.13
62464;SHT31;48512;48.552;9.380;2023-04-25T10:54:54;7.60;80.71
62464;SHT31;48512;48.552;9.380;2023-04-25T10:57:36;7.73;81.19
62464;SHT31;48512;48.552;9.380;2023-04-25T11:02:40;8.17;80.39
62464;SHT31;48512;48.552;9.380;2023-04-25T11:05:07;8.07;81.59
62464;SHT31;48512;48.552;9.380;2023-04-25T11:07:38;8.06;81.93
62464;SHT31;48512;48.552;9.380;2023-04-25T11:10:05;8.19;81.29
62464;SHT31;48512;48.552;9.380;2023-04-25T11:12:32;8.36;82.09
62464;SHT31;48512;48.552;9.380;2023-04-25T11:15:00;8.30;81.31
62464;SHT31;48512;48.552;9.380;2023-04-25T11:17:27;8.56;79.44
62464;SHT31;48512;48.552;9.380;2023-04-25T11:19:54;8.36;79.47
62464;SHT31;48512;48.552;9.380;2023-04-25T11:22:22;8.42;79.16
62464;SHT31;48512;48.552;9.380;2023-04-25T11:24:48;8.13;79.37
62464;SHT31;48512;48.552;9.380;2023-04-25T11:27:14;8.43;77.41
62464;SHT31;48512;48.552;9.380;2023-04-25T11:29:40;7.98;78.74
62464;SHT31;48512;48.552;9.380;2023-04-25T11:32:07;8.02;80.22
62464;SHT31;48512;48.552;9.380;2023-04-25T11:34:34;7.99;79.34
62464;SHT31;48512;48.552;9.380;2023-04-25T11:37:01;8.10;79.43
62464;SHT31;48512;48.552;9.380;2023-04-25T11:39:28;8.09;79.90
62464;SHT31;48512;48.552;9.380;2023-04-25T11:41:55;8.10;80.23
62464;SHT31;48512;48.552;9.380;2023-04-25T11:44:22;8.23;80.04
62464;SHT31;48512;48.552;9.380;2023-04-25T11:46:48;8.36;80.01
62464;SHT31;48512;48.552;9.380;2023-04-25T11:49:15;8.52;79.62
62464;SHT31;48512;48.552;9.380;2023-04-25T11:51:45;8.47;78.09
62464;SHT31;48512;48.552;9.380;2023-04-25T11:54:12;8.36;80.01
62464;SHT31;48512;48.552;9.380;2023-04-25T11:56:45;8.50;80.29
62464;SHT31;48512;48.552;9.380;2023-04-25T11:59:12;8.60;79.51
62464;SHT31;48512;48.552;9.380;2023-04-25T12:01:40;8.82;79.15
62464;SHT31;48512;48.552;9.380;2023-04-25T12:04:17;8.65;79.85
62464;SHT31;48512;48.552;9.380;2023-04-25T12:06:45;8.59;79.10
62464;SHT31;48512;48.552;9.380;2023-04-25T12:09:16;8.44;80.28
62464;SHT31;48512;48.552;9.380;2023-04-25T12:11:45;8.16;80.10
62464;SHT31;48512;48.552;9.380;2023-04-25T12:14:32;8.15;81.30
62464;SHT31;48512;48.552;9.380;2023-04-25T12:17:01;8.26;82.27
62464;SHT31;48512;48.552;9.380;2023-04-25T12:19:35;8.65;79.18
62464;SHT31;48512;48.552;9.380;2023-04-25T12:22:03;8.54;79.82
62464;SHT31;48512;48.552;9.380;2023-04-25T12:24:29;8.68;80.23
62464;SHT31;48512;48.552;9.380;2023-04-25T12:29:28;8.56;81.63
62464;SHT31;48512;48.552;9.380;2023-04-25T12:31:55;8.61;80.98
62464;SHT31;48512;48.552;9.380;2023-04-25T12:34:22;8.65;79.90
62464;SHT31;48512;48.552;9.380;2023-04-25T12:36:49;8.59;78.87
62464;SHT31;48512;48.552;9.380;2023-04-25T12:39:16;8.63;80.52
62464;SHT31;48512;48.552;9.380;2023-04-25T12:41:43;8.75;80.66
62464;SHT31;48512;48.552;9.380;2023-04-25T12:44:10;8.71;81.76
62464;SHT31;48512;48.552;9.380;2023-04-25T12:46:37;8.72;81.81
62464;SHT31;48512;48.552;9.380;2023-04-25T12:49:04;8.91;81.63
62464;SHT31;48512;48.552;9.380;2023-04-25T12:51:31;9.05;81.45
62464;SHT31;48512;48.552;9.380;2023-04-25T12:53:59;9.23;80.17
62464;SHT31;48512;48.552;9.380;2023-04-25T12:56:27;9.25;78.96
62464;SHT31;48512;48.552;9.380;2023-04-25T12:58:53;9.11;79.63
62464;SHT31;48512;48.552;9.380;2023-04-25T13:01:23;9.20;79.93
62464;SHT31;48512;48.552;9.380;2023-04-25T13:03:50;9.46;79.56
62464;SHT31;48512;48.552;9.380;2023-04-25T13:06:17;9.44;79.82
62464;SHT31;48512;48.552;9.380;2023-04-25T13:08:43;9.61;77.94
62464;SHT31;48512;48.552;9.380;2023-04-25T13:11:10;9.29;79.41
62464;SHT31;48512;48.552;9.380;2023-04-25T13:13:37;9.33;79.10
62464;SHT31;48512;48.552;9.380;2023-04-25T13:16:04;9.42;78.38
62464;SHT31;48512;48.552;9.380;2023-04-25T13:18:31;9.49;79.19
62464;SHT31;48512;48.552;9.380;2023-04-25T13:20:58;9.61;76.82
62464;SHT31;48512;48.552;9.380;2023-04-25T13:23:26;9.90;76.72
62464;SHT31;48512;48.552;9.380;2023-04-25T13:25:54;9.98;77.90
62464;SHT31;48512;48.552;9.380;2023-04-25T13:28:21;10.35;77.10
62464;SHT31;48512;48.552;9.380;2023-04-25T13:30:47;10.84;76.53
62464;SHT31;48512;48.552;9.380;2023-04-25T13:33:14;11.22;74.78
62464;SHT31;48512;48.552;9.380;2023-04-25T13:35:41;10.93;72.94
62464;SHT31;48512;48.552;9.380;2023-04-25T13:38:08;10.77;73.19
62464;SHT31;48512;48.552;9.380;2023-04-25T13:40:35;10.56;74.57
62464;SHT31;48512;48.552;9.380;2023-04-25T13:43:01;10.46;74.45
62464;SHT31;48512;48.552;9.380;2023-04-25T13:45:28;10.56;75.40
62464;SHT31;48512;48.552;9.380;2023-04-25T13:47:54;10.55;75.45
62464;SHT31;48512;48.552;9.380;2023-04-25T13:50:20;10.60;73.78
62464;SHT31;48512;48.552;9.380;2023-04-25T13:52:47;10.49;72.79
62464;SHT31;48512;48.552;9.380;2023-04-25T13:55:13;10.70;72.98
62464;SHT31;48512;48.552;9.380;2023-04-25T13:57:39;10.90;72.63
62464;SHT31;48512;48.552;9.380;2023-04-25T14:00:06;11.22;73.63
62464;SHT31;48512;48.552;9.380;2023-04-25T14:02:35;11.43;75.08
62464;SHT31;48512;48.552;9.380;2023-04-25T14:05:03;11.59;75.06
62464;SHT31;48512;48.552;9.380;2023-04-25T14:07:29;11.82;72.85
62464;SHT31;48512;48.552;9.380;2023-04-25T14:09:56;11.90;69.98
62464;SHT31;48512;48.552;9.380;2023-04-25T14:12:25;12.52;68.54
62464;SHT31;48512;48.552;9.380;2023-04-25T14:14:52;12.40;69.69
62464;SHT31;48512;48.552;9.380;2023-04-25T14:17:19;13.30;65.67
62464;SHT31;48512;48.552;9.380;2023-04-25T14:19:45;12.85;64.75
62464;SHT31;48512;48.552;9.380;2023-04-25T14:22:14;12.42;68.37
62464;SHT31;48512;48.552;9.380;2023-04-25T14:24:43;12.42;68.57
62464;SHT31;48512;48.552;9.380;2023-04-25T14:27:09;12.58;65.69
62464;SHT31;48512;48.552;9.380;2023-04-25T14:29:36;13.06;66.42
62464;SHT31;48512;48.552;9.380;2023-04-25T14:32:02;13.26;65.55
62464;SHT31;48512;48.552;9.380;2023-04-25T14:34:28;14.02;62.38
62464;SHT31;48512;48.552;9.380;2023-04-25T14:36:55;14.23;62.55
62464;SHT31;48512;48.552;9.380;2023-04-25T14:39:21;13.66;64.45
62464;SHT31;48512;48.552;9.380;2023-04-25T14:41:47;13.27;65.56
62464;SHT31;48512;48.552;9.380;2023-04-25T14:44:13;13.16;64.51
62464;SHT31;48512;48.552;9.380;2023-04-25T14:46:39;13.02;63.99
62464;SHT31;48512;48.552;9.380;2023-04-25T14:49:05;12.96;63.72
62464;SHT31;48512;48.552;9.380;2023-04-25T14:51:32;12.95;64.43
62464;SHT31;48512;48.552;9.380;2023-04-25T14:53:58;12.95;62.90
62464;SHT31;48512;48.552;9.380;2023-04-25T14:56:24;12.79;63.47
62464;SHT31;48512;48.552;9.380;2023-04-25T14:58:51;12.80;64.43
62464;SHT31;48512;48.552;9.380;2023-04-25T15:01:17;13.00;64.42
62464;SHT31;48512;48.552;9.380;2023-04-25T15:03:46;14.01;62.49
62464;SHT31;48512;48.552;9.380;2023-04-25T15:06:12;14.99;61.86
62464;SHT31;48512;48.552;9.380;2023-04-25T15:08:38;14.89;59.79
62464;SHT31;48512;48.552;9.380;2023-04-25T15:11:05;14.82;58.42
62464;SHT31;48512;48.552;9.380;2023-04-25T15:13:31;14.57;60.12
62464;SHT31;48512;48.552;9.380;2023-04-25T15:15:58;14.44;60.43
62464;SHT31;48512;48.552;9.380;2023-04-25T15:18:24;14.17;60.64
62464;SHT31;48512;48.552;9.380;2023-04-25T15:20:51;14.19;60.12
62464;SHT31;48512;48.552;9.380;2023-04-25T15:23:18;14.85;58.72
62464;SHT31;48512;48.552;9.380;2023-04-25T15:25:45;15.36;58.61
62464;SHT31;48512;48.552;9.380;2023-04-25T15:28:12;15.39;58.36
62464;SHT31;48512;48.552;9.380;2023-04-25T15:30:42;15.74;56.54
62464;SHT31;48512;48.552;9.380;2023-04-25T15:33:09;15.20;58.50
62464;SHT31;48512;48.552;9.380;2023-04-25T15:35:35;14.67;59.91
62464;SHT31;48512;48.552;9.380;2023-04-25T15:38:01;15.50;57.96
62464;SHT31;48512;48.552;9.380;2023-04-25T15:40:27;14.52;58.92
62464;SHT31;48512;48.552;9.380;2023-04-25T15:42:54;14.65;59.20
62464;SHT31;48512;48.552;9.380;2023-04-25T15:45:22;14.64;59.73
62464;SHT31;48512;48.552;9.380;2023-04-25T15:47:51;14.84;58.60
62464;SHT31;48512;48.552;9.380;2023-04-25T15:50:20;14.54;58.48
62464;SHT31;48512;48.552;9.380;2023-04-25T15:52:48;14.58;59.79
62464;SHT31;48512;48.552;9.380;2023-04-25T15:55:14;14.82;60.92
62464;SHT31;48512;48.552;9.380;2023-04-25T15:57:42;15.06;58.50
62464;SHT31;48512;48.552;9.380;2023-04-25T16:00:09;14.85;57.81
62464;SHT31;48512;48.552;9.380;2023-04-25T16:02:40;14.38;58.49
62464;SHT31;48512;48.552;9.380;2023-04-25T16:05:07;14.89;57.56
62464;SHT31;48512;48.552;9.380;2023-04-25T16:07:34;15.53;56.58
62464;SHT31;48512;48.552;9.380;2023-04-25T16:10:00;15.40;57.89